Time;durP1;ratioP1;P1;durP2;ratioP2;P2;SDS_P1;SDS_P2;PMS_P1;PMS_P2;Temp;Humidity;BMP_temperature;BMP_pressure;BME280_temperature;BME280_humidity;BME280_pressure;Samples;Min_cycle;Max_cycle;Signal;HPM_P1;HPM_P2
2022/05/26 00:01:27;;;;;;;1.05;0.70;;;;;;;22.37;33.30;101383.66;5078705;28;20089;-74
2022/05/26 00:03:54;;;;;;;1.75;0.80;;;;;;;22.35;32.83;101378.28;5079060;28;20055;-74
2022/05/26 00:06:23;;;;;;;3.25;0.80;;;;;;;22.37;32.91;101384.53;5089844;28;20086;-74
2022/05/26 00:08:50;;;;;;;2.45;0.93;;;;;;;22.34;32.89;101387.63;5087935;28;20071;-74
2022/05/26 00:11:26;;;;;;;1.75;0.70;;;;;;;22.35;34.02;101381.06;5079149;28;20079;-74
2022/05/26 00:13:55;;;;;;;3.22;0.85;;;;;;;22.30;33.20;101377.94;5088179;28;20035;-74
2022/05/26 00:16:22;;;;;;;1.45;0.70;;;;;;;22.29;33.47;101378.09;5091216;28;20075;-73
2022/05/26 00:18:49;;;;;;;2.70;0.65;;;;;;;22.28;33.21;101365.28;5087497;28;20044;-74
2022/05/26 00:21:16;;;;;;;3.38;1.17;;;;;;;22.28;33.67;101374.44;5074173;28;20050;-74
2022/05/26 00:23:43;;;;;;;1.85;0.88;;;;;;;22.27;33.33;101371.84;5077094;28;20107;-73
2022/05/26 00:26:09;;;;;;;1.70;1.00;;;;;;;22.28;33.64;101370.81;5075832;28;20148;-74
2022/05/26 00:28:36;;;;;;;2.53;0.82;;;;;;;22.27;33.74;101369.94;5083328;28;20563;-74
2022/05/26 00:31:03;;;;;;;1.75;1.00;;;;;;;22.27;33.53;101366.31;5081130;28;20127;-74
2022/05/26 00:33:29;;;;;;;2.22;0.77;;;;;;;22.27;33.72;101372.72;5077360;28;20156;-73
2022/05/26 00:36:05;;;;;;;1.75;0.70;;;;;;;22.32;33.80;101377.72;5083243;28;20040;-73
2022/05/26 00:38:32;;;;;;;1.33;0.70;;;;;;;22.27;34.01;101382.91;5080566;28;20089;-74
2022/05/26 00:41:05;;;;;;;2.03;0.90;;;;;;;22.31;33.81;101381.56;5086090;28;20433;-74
2022/05/26 00:43:32;;;;;;;2.05;0.90;;;;;;;22.27;33.63;101377.38;5083013;28;20094;-74
2022/05/26 00:46:09;;;;;;;1.60;1.15;;;;;;;22.30;34.31;101380.69;5077704;28;20453;-74
2022/05/26 00:48:47;;;;;;;0.88;0.70;;;;;;;22.31;34.27;101381.56;5087086;28;20044;-74
2022/05/26 00:51:15;;;;;;;2.70;0.80;;;;;;;22.28;33.93;101385.50;5072439;28;20134;-74
2022/05/26 00:53:45;;;;;;;2.08;0.80;;;;;;;22.27;33.70;101369.94;5092189;28;20058;-74
2022/05/26 00:56:18;;;;;;;1.45;0.70;;;;;;;22.30;34.32;101371.53;5100065;28;20086;-73
2022/05/26 00:58:50;;;;;;;3.53;0.82;;;;;;;22.27;33.88;101375.47;5098069;28;20432;-74
2022/05/26 01:01:17;;;;;;;1.85;0.70;;;;;;;22.24;34.02;101380.47;5091925;28;20083;-73
2022/05/26 01:03:51;;;;;;;1.75;0.73;;;;;;;22.28;34.38;101379.13;5085234;28;20056;-73
2022/05/26 01:06:28;;;;;;;3.10;0.98;;;;;;;22.25;33.83;101382.19;5074732;28;20456;-74
2022/05/26 01:08:58;;;;;;;2.20;0.90;;;;;;;22.26;34.19;101381.16;5074781;28;20033;-73
2022/05/26 01:11:28;;;;;;;3.80;0.80;;;;;;;22.26;34.17;101384.81;5077953;28;20467;-74
2022/05/26 01:14:29;;;;;;;1.73;0.90;;;;;;;22.21;34.69;101387.22;5074445;28;20139;-74
2022/05/26 01:17:23;;;;;;;1.98;0.88;;;;;;;22.22;34.25;101382.56;5087749;28;20147;-74
2022/05/26 01:20:11;;;;;;;1.60;0.80;;;;;;;22.22;34.63;101390.84;5089025;28;20147;-73
2022/05/26 01:22:47;;;;;;;1.35;0.70;;;;;;;22.18;34.16;101383.91;5070574;28;20127;-74
2022/05/26 01:25:33;;;;;;;1.65;0.90;;;;;;;22.17;34.23;101382.16;5093859;28;20075;-74
2022/05/26 01:28:27;;;;;;;1.42;0.73;;;;;;;22.18;34.43;101383.91;5094038;28;20047;-74
2022/05/26 01:31:28;;;;;;;1.77;0.88;;;;;;;22.14;34.98;101383.38;5087383;28;20502;-74
2022/05/26 01:34:14;;;;;;;2.75;0.80;;;;;;;22.11;34.58;101392.00;5085751;28;20055;-74
2022/05/26 01:36:55;;;;;;;2.35;0.73;;;;;;;22.12;34.54;101395.63;5092554;28;20044;-74
2022/05/26 01:39:39;;;;;;;2.13;0.82;;;;;;;22.09;35.08;101390.41;5090215;28;20078;-74
2022/05/26 01:42:27;;;;;;;2.08;0.80;;;;;;;22.05;35.32;101384.38;5088968;28;20050;-75
2022/05/26 01:45:30;;;;;;;1.40;0.70;;;;;;;22.01;35.33;101391.22;5093348;28;20131;-73
2022/05/26 01:48:28;;;;;;;0.98;0.70;;;;;;;22.00;35.57;101389.50;5059916;28;20123;-74
2022/05/26 01:51:11;;;;;;;1.35;0.80;;;;;;;22.01;35.22;101391.22;5089544;28;20470;-74
2022/05/26 01:54:18;;;;;;;1.58;0.80;;;;;;;21.91;35.18;101395.97;5089092;28;20066;-73
2022/05/26 01:57:06;;;;;;;1.48;0.73;;;;;;;21.95;35.99;101397.38;5071589;28;20134;-74
2022/05/26 01:59:50;;;;;;;1.75;0.80;;;;;;;21.92;35.72;101393.03;5085981;28;20043;-74
2022/05/26 02:02:22;;;;;;;2.53;0.80;;;;;;;21.92;35.67;101403.22;5089746;28;20074;-74
2022/05/26 02:04:55;;;;;;;1.40;0.73;;;;;;;21.88;35.86;101397.19;5074663;28;20784;-74
2022/05/26 02:07:30;;;;;;;1.58;0.60;;;;;;;21.88;35.52;101399.06;5094881;28;20047;-74
2022/05/26 02:10:00;;;;;;;1.48;0.73;;;;;;;21.89;35.51;101404.44;5093082;28;20573;-74
2022/05/26 02:12:35;;;;;;;2.13;0.70;;;;;;;21.92;36.04;101408.75;5089598;28;20499;-74
2022/05/26 02:15:11;;;;;;;1.55;0.85;;;;;;;21.92;36.49;101404.09;5094334;28;20123;-73
2022/05/26 02:17:44;;;;;;;1.05;0.80;;;;;;;21.93;36.98;101410.50;5089423;28;20482;-74
2022/05/26 02:20:17;;;;;;;2.53;0.70;;;;;;;21.94;36.56;101409.47;5090678;28;20143;-74
2022/05/26 02:22:55;;;;;;;;;;;;;;;21.64;36.17;101411.69;5090222;28;20078;-74
2022/05/26 02:25:25;;;;;;;1.58;0.75;;;;;;;21.88;36.82;101404.59;5092587;28;19988;-73
2022/05/26 02:27:54;;;;;;;1.27;0.73;;;;;;;21.91;36.84;101407.03;5090015;28;20536;-73
2022/05/26 02:30:24;;;;;;;1.90;0.90;;;;;;;21.90;36.86;101410.84;5090086;28;20200;-74
2022/05/26 02:32:53;;;;;;;1.98;0.90;;;;;;;21.89;36.70;101412.75;5084443;28;20130;-73
2022/05/26 02:35:24;;;;;;;1.90;0.73;;;;;;;21.89;37.22;101414.63;5092464;28;20044;-73
2022/05/26 02:37:56;;;;;;;2.53;0.93;;;;;;;21.87;37.47;101416.69;5065302;28;20083;-73
2022/05/26 02:40:22;;;;;;;2.17;0.85;;;;;;;21.85;36.83;101408.56;5091472;28;20113;-74
2022/05/26 02:42:56;;;;;;;1.50;0.82;;;;;;;21.88;38.00;101412.91;5094851;28;20043;-73
2022/05/26 02:45:39;;;;;;;1.85;0.95;;;;;;;21.85;37.54;101416.84;5089446;28;20098;-74
2022/05/26 02:48:36;;;;;;;1.77;0.75;;;;;;;21.80;37.63;101413.72;5089495;28;20050;-74
2022/05/26 02:51:17;;;;;;;1.17;0.70;;;;;;;21.78;37.91;101414.91;5094352;28;20123;-74
2022/05/26 02:53:54;;;;;;;1.70;0.80;;;;;;;21.75;38.21;101418.84;5089212;28;20094;-74
2022/05/26 02:56:34;;;;;;;2.25;0.80;;;;;;;21.74;38.40;101413.50;5086749;28;20127;-73
2022/05/26 02:59:16;;;;;;;2.13;0.82;;;;;;;21.71;37.70;101420.22;5086451;28;20134;-74
2022/05/26 03:01:59;;;;;;;3.47;1.05;;;;;;;21.68;38.01;101426.03;5087613;28;20048;-73
2022/05/26 03:04:33;;;;;;;2.35;0.90;;;;;;;21.70;38.16;101432.28;5086974;28;20501;-74
2022/05/26 03:07:06;;;;;;;1.58;0.70;;;;;;;21.70;38.14;101434.19;5095923;28;20051;-74
2022/05/26 03:09:35;;;;;;;1.42;0.90;;;;;;;21.69;37.53;101424.16;5092675;28;20032;-74
2022/05/26 03:12:02;;;;;;;2.95;1.10;;;;;;;21.67;37.92;101428.97;5089201;28;20127;-74
2022/05/26 03:14:29;;;;;;;2.17;0.88;;;;;;;21.66;37.61;101433.63;5089792;28;20064;-74
2022/05/26 03:16:55;;;;;;;1.20;0.80;;;;;;;21.65;37.67;101431.91;5090324;28;20048;-74
2022/05/26 03:19:22;;;;;;;1.42;0.90;;;;;;;21.63;37.80;101425.66;5088979;28;20068;-74
2022/05/26 03:21:48;;;;;;;2.08;1.10;;;;;;;21.63;38.27;101426.53;5087491;28;20477;-74
2022/05/26 03:24:15;;;;;;;0.82;0.70;;;;;;;21.62;38.08;101430.31;5092391;28;20048;-73
2022/05/26 03:26:42;;;;;;;1.42;0.80;;;;;;;21.61;37.81;101434.13;5088542;28;20251;-74
2022/05/26 03:29:09;;;;;;;1.65;0.77;;;;;;;21.62;37.80;101422.03;5083248;28;20552;-74
2022/05/26 03:31:35;;;;;;;1.38;0.85;;;;;;;21.61;38.03;101434.13;5081073;28;20079;-74
2022/05/26 03:42:18;;;;;;;2.80;1.02;;;;;;;21.55;38.07;101444.94;5077687;28;20044;-74
2022/05/26 03:44:45;;;;;;;2.15;0.95;;;;;;;21.57;37.83;101448.44;5093695;28;20072;-73
2022/05/26 03:47:12;;;;;;;1.95;1.00;;;;;;;21.56;37.80;101450.31;5089660;28;20056;-74
2022/05/26 03:49:39;;;;;;;3.65;1.35;;;;;;;21.57;38.04;101446.53;5085769;28;20466;-74
2022/05/26 03:52:06;;;;;;;1.83;0.98;;;;;;;21.57;38.13;101451.19;5087588;28;20122;-75
2022/05/26 03:54:33;;;;;;;2.00;1.10;;;;;;;21.58;38.54;101444.59;5090623;28;20040;-74
2022/05/26 03:56:59;;;;;;;2.00;1.15;;;;;;;21.58;38.26;101453.75;5092839;28;20409;-74
2022/05/26 03:59:26;;;;;;;2.53;1.30;;;;;;;21.57;38.67;101452.06;5090432;28;20129;-74
2022/05/26 04:01:53;;;;;;;2.17;1.25;;;;;;;21.58;39.12;101455.66;5086152;28;20143;-73
2022/05/26 04:04:20;;;;;;;3.05;1.50;;;;;;;21.56;39.22;101455.84;5088233;28;20068;-74
2022/05/26 04:06:48;;;;;;;3.40;1.38;;;;;;;21.55;39.56;101456.88;5089938;28;20117;-74
2022/05/26 04:09:15;;;;;;;2.92;1.17;;;;;;;21.55;39.67;101461.53;5095343;28;20055;-74
2022/05/26 04:11:42;;;;;;;3.53;1.40;;;;;;;21.56;39.55;101464.13;5088317;28;20566;-74
2022/05/26 04:14:09;;;;;;;3.13;1.50;;;;;;;21.57;39.61;101459.47;5073304;28;20083;-74
2022/05/26 04:16:36;;;;;;;3.17;1.58;;;;;;;21.55;39.81;101464.28;5080564;28;20097;-74
2022/05/26 04:19:03;;;;;;;3.05;1.40;;;;;;;21.55;39.75;101465.16;5095117;28;20052;-74
2022/05/26 04:21:29;;;;;;;3.40;1.60;;;;;;;21.55;39.95;101467.91;5087867;28;20103;-74
2022/05/26 04:23:56;;;;;;;3.67;1.83;;;;;;;21.54;40.25;101474.47;5097981;28;20075;-74
2022/05/26 04:26:22;;;;;;;3.22;1.55;;;;;;;21.53;40.13;101478.25;5090236;28;20123;-72
2022/05/26 04:28:49;;;;;;;3.22;1.50;;;;;;;21.51;40.66;101479.44;5082020;28;20454;-73
2022/05/26 04:31:16;;;;;;;4.72;1.90;;;;;;;21.51;40.33;101483.06;5079519;28;20250;-74
2022/05/26 04:33:44;;;;;;;4.50;1.73;;;;;;;21.49;39.91;101479.63;5084661;28;20090;-73
2022/05/26 04:36:11;;;;;;;4.60;1.80;;;;;;;21.47;40.28;101489.94;5089052;28;20560;-74
2022/05/26 04:38:38;;;;;;;3.72;1.60;;;;;;;21.47;40.24;101486.31;5097791;28;20047;-73
2022/05/26 04:41:06;;;;;;;3.22;1.77;;;;;;;21.47;40.17;101492.72;5094078;28;20048;-73
2022/05/26 04:43:34;;;;;;;4.32;2.00;;;;;;;21.45;40.44;101482.84;5081268;28;20052;-73
2022/05/26 04:46:02;;;;;;;4.88;2.40;;;;;;;21.43;40.50;101493.16;5069787;28;20192;-73
2022/05/26 04:48:29;;;;;;;4.47;2.13;;;;;;;21.39;40.34;101489.88;5088063;28;20044;-74
2022/05/26 04:50:56;;;;;;;4.07;1.85;;;;;;;21.37;40.66;101491.91;5088435;28;20080;-74
2022/05/26 04:53:22;;;;;;;4.00;1.80;;;;;;;21.35;40.46;101498.59;5070875;28;20063;-73
2022/05/26 04:55:54;;;;;;;3.20;1.83;;;;;;;21.36;41.36;101503.97;5086129;28;20471;-73
2022/05/26 04:58:22;;;;;;;4.65;1.73;;;;;;;21.29;40.98;101502.88;5086254;28;20048;-73
2022/05/26 05:00:49;;;;;;;4.50;1.95;;;;;;;21.29;40.87;101500.13;5086160;28;20067;-73
2022/05/26 05:03:16;;;;;;;3.13;1.80;;;;;;;21.27;41.13;101508.56;5082622;28;20510;-73
2022/05/26 05:05:43;;;;;;;3.85;1.85;;;;;;;21.26;41.21;101508.69;5090132;28;20134;-74
2022/05/26 05:08:09;;;;;;;4.30;2.10;;;;;;;21.25;41.00;101513.34;5081647;28;20127;-73
2022/05/26 05:10:36;;;;;;;4.00;2.05;;;;;;;21.25;40.89;101521.63;5088784;28;20149;-74
2022/05/26 05:13:02;;;;;;;5.10;2.38;;;;;;;21.24;41.32;101519.94;5087048;28;20055;-74
2022/05/26 05:15:39;;;;;;;3.80;1.90;;;;;;;21.26;41.72;101511.47;5090262;28;20483;-73
2022/05/26 05:18:06;;;;;;;5.15;2.03;;;;;;;21.23;41.35;101518.19;5073408;28;20075;-73
2022/05/26 05:20:34;;;;;;;4.32;2.05;;;;;;;21.25;41.32;101518.88;5083861;28;20127;-73
2022/05/26 05:23:08;;;;;;;5.35;2.22;;;;;;;21.27;41.49;101524.25;5063507;28;20537;-73
2022/05/26 05:25:39;;;;;;;4.18;2.42;;;;;;;21.26;41.85;101528.03;5090048;28;20048;-73
2022/05/26 05:28:21;;;;;;;4.32;2.10;;;;;;;21.27;41.80;101529.78;5087502;28;20591;-73
2022/05/26 05:30:51;;;;;;;5.80;2.65;;;;;;;21.23;41.91;101532.00;5089145;28;20159;-73
2022/05/26 05:33:28;;;;;;;5.20;2.75;;;;;;;21.27;41.69;101538.94;5087396;28;20086;-74
2022/05/26 05:36:08;;;;;;;5.90;2.53;;;;;;;21.27;41.95;101551.88;5087226;28;20080;-74
2022/05/26 05:38:40;;;;;;;6.07;2.33;;;;;;;21.24;41.51;101549.44;5091179;28;20059;-74
2022/05/26 05:41:08;;;;;;;4.35;2.50;;;;;;;21.24;41.50;101553.06;5095950;28;20051;-73
2022/05/26 05:43:35;;;;;;;5.70;2.53;;;;;;;21.25;41.89;101552.03;5092583;28;20526;-73
2022/05/26 05:46:03;;;;;;;6.10;2.65;;;;;;;21.26;41.22;101555.66;5089510;28;20044;-73
2022/05/26 05:48:29;;;;;;;5.60;2.53;;;;;;;21.27;41.40;101555.50;5091994;28;20494;-73
2022/05/26 05:50:56;;;;;;;4.85;2.70;;;;;;;21.27;41.86;101555.50;5092798;28;20127;-73
2022/05/26 05:53:23;;;;;;;4.55;2.53;;;;;;;21.29;41.27;101560.88;5073765;28;20048;-73
2022/05/26 05:55:49;;;;;;;4.03;2.20;;;;;;;21.29;41.69;101560.88;5088105;28;20139;-73
2022/05/26 05:58:16;;;;;;;5.18;2.53;;;;;;;21.30;41.69;101559.88;5090308;28;20148;-74
2022/05/26 06:00:43;;;;;;;5.15;2.35;;;;;;;21.31;41.93;101569.88;5090929;28;20528;-73
2022/05/26 06:03:10;;;;;;;5.57;2.15;;;;;;;21.33;41.66;101572.50;5086332;28;20538;-73
2022/05/26 06:05:37;;;;;;;3.95;2.13;;;;;;;21.34;41.82;101566.78;5090974;28;20210;-73
2022/05/26 06:08:05;;;;;;;5.80;2.40;;;;;;;21.38;42.10;101570.13;5084969;28;20040;-73
2022/05/26 06:10:32;;;;;;;5.55;2.53;;;;;;;21.42;42.13;101569.66;5085486;28;20090;-73
2022/05/26 06:12:59;;;;;;;4.65;2.47;;;;;;;21.46;41.90;101582.16;5068610;28;20044;-73
2022/05/26 06:15:26;;;;;;;4.38;2.50;;;;;;;21.51;41.94;101574.25;5093433;28;20067;-74
2022/05/26 06:17:52;;;;;;;4.95;2.78;;;;;;;21.54;41.89;101582.25;5073260;28;20131;-73
2022/05/26 06:20:19;;;;;;;5.07;2.72;;;;;;;21.58;41.80;101583.66;5093980;28;20122;-72
2022/05/26 06:22:47;;;;;;;6.80;2.65;;;;;;;21.61;41.79;101580.59;5086797;28;20051;-73
2022/05/26 06:25:16;;;;;;;5.18;2.90;;;;;;;21.65;41.53;101589.44;5096854;28;20044;-73
2022/05/26 06:30:32;;;;;;;7.78;2.75;;;;;;;21.69;42.10;101590.84;5090903;28;20082;-73
2022/05/26 06:38:38;;;;;;;8.75;3.08;;;;;;;21.77;41.71;101601.13;5089530;28;20352;-73
2022/05/26 06:43:53;;;;;;;5.63;3.40;;;;;;;21.81;41.18;101603.44;5088859;28;20524;-73
2022/05/26 06:46:20;;;;;;;5.90;3.53;;;;;;;21.83;41.55;101606.88;5081225;28;20047;-73
2022/05/26 06:48:47;;;;;;;5.55;3.40;;;;;;;21.87;41.16;101607.44;5089340;28;20060;-74
2022/05/26 06:51:14;;;;;;;6.15;3.47;;;;;;;21.88;41.11;101603.66;5087479;28;20145;-72
2022/05/26 06:53:41;;;;;;;8.77;3.88;;;;;;;21.89;41.15;101625.63;5089468;28;20445;-73
2022/05/26 06:56:08;;;;;;;6.88;3.80;;;;;;;21.89;40.98;101614.56;5089196;28;20441;-73
2022/05/26 06:58:35;;;;;;;7.85;3.55;;;;;;;21.91;40.78;101620.78;5071761;28;20068;-73
2022/05/26 07:01:01;;;;;;;5.78;3.20;;;;;;;21.92;41.17;101617.00;5093230;28;20044;-73
2022/05/26 07:03:28;;;;;;;6.28;2.85;;;;;;;21.93;41.14;101628.94;5070190;28;20051;-73
2022/05/26 07:05:55;;;;;;;5.10;3.17;;;;;;;21.94;41.00;101623.25;5069966;28;20074;-73
2022/05/26 07:08:22;;;;;;;5.00;3.08;;;;;;;21.95;40.72;101630.53;5084933;28;20563;-73
2022/05/26 07:10:50;;;;;;;5.18;3.20;;;;;;;21.97;40.86;101641.47;5090431;28;20040;-73
2022/05/26 07:13:17;;;;;;;5.80;3.20;;;;;;;21.98;40.79;101634.91;5080713;28;20380;-73
2022/05/26 07:15:43;;;;;;;5.93;3.70;;;;;;;21.99;40.39;101637.50;5086785;28;20138;-71
2022/05/26 07:18:10;;;;;;;5.35;3.58;;;;;;;22.01;40.89;101640.13;5077146;28;20131;-73
2022/05/26 07:20:38;;;;;;;5.88;3.63;;;;;;;22.04;40.50;101641.69;5086873;28;20036;-73
2022/05/26 07:23:08;;;;;;;6.63;3.50;;;;;;;22.06;40.43;101648.81;5089964;28;20050;-73
2022/05/26 07:25:39;;;;;;;7.20;3.75;;;;;;;22.10;40.83;101653.00;5086104;28;20047;-73
2022/05/26 07:28:05;;;;;;;6.35;3.38;;;;;;;22.09;40.54;101647.63;5089521;28;20044;-73
2022/05/26 07:30:32;;;;;;;6.57;3.20;;;;;;;22.10;40.92;101653.00;5068793;28;20148;-73
2022/05/26 07:32:59;;;;;;;5.60;2.83;;;;;;;22.12;40.72;101655.59;5071391;28;20048;-78
2022/05/26 07:35:27;;;;;;;6.40;2.60;;;;;;;22.15;40.64;101647.00;5074756;28;20361;-75
2022/05/26 07:43:25;;;;;;;4.82;3.03;;;;;;;22.31;40.61;101656.31;5089575;28;20044;-75
2022/05/26 07:45:52;;;;;;;6.18;2.88;;;;;;;22.39;40.58;101658.28;5066798;28;20069;-78
2022/05/26 07:48:18;;;;;;;8.10;3.28;;;;;;;22.47;40.61;101652.84;5089927;28;20048;-76
2022/05/26 07:50:45;;;;;;;5.10;3.00;;;;;;;22.56;40.66;101659.31;5091257;28;20651;-76
2022/05/26 07:53:14;;;;;;;4.72;3.00;;;;;;;22.66;41.01;101662.81;5086948;28;20048;-78
2022/05/26 07:55:42;;;;;;;7.03;3.28;;;;;;;22.76;41.38;101658.09;5075640;28;20130;-76
2022/05/26 07:58:11;;;;;;;6.00;3.40;;;;;;;22.90;40.92;101659.38;5077631;28;20136;-76
2022/05/26 08:00:39;;;;;;;5.28;2.60;;;;;;;23.01;40.25;101664.66;5082429;28;20136;-76
2022/05/26 08:03:06;;;;;;;6.15;3.10;;;;;;;23.11;40.00;101669.06;5072062;28;20047;-76
2022/05/26 08:05:32;;;;;;;4.78;2.75;;;;;;;23.21;39.89;101668.06;5084040;28;20052;-77
2022/05/26 08:07:59;;;;;;;4.82;2.90;;;;;;;23.29;39.46;101670.91;5089868;28;20048;-77
2022/05/26 08:10:26;;;;;;;4.57;2.80;;;;;;;23.38;39.50;101679.09;5092738;28;20040;-77
2022/05/26 08:12:53;;;;;;;5.75;2.65;;;;;;;23.45;38.96;101682.06;5089283;28;20106;-77
2022/05/26 08:15:26;;;;;;;5.13;2.42;;;;;;;23.53;38.97;101679.34;5080570;28;20508;-77
2022/05/26 08:17:52;;;;;;;6.10;2.85;;;;;;;23.58;39.31;101682.47;5089274;28;20097;-76
2022/05/26 08:20:19;;;;;;;5.80;2.95;;;;;;;23.65;39.36;101691.00;5082054;28;20044;-76
2022/05/26 08:22:48;;;;;;;5.68;3.05;;;;;;;23.73;38.89;101689.13;5088742;28;20140;-76
2022/05/26 08:25:14;;;;;;;7.00;2.90;;;;;;;23.77;38.45;101689.66;5092780;28;20493;-76
2022/05/26 08:27:41;;;;;;;4.93;3.25;;;;;;;23.82;38.62;101703.88;5095170;28;20135;-76
2022/05/26 08:30:08;;;;;;;4.60;2.78;;;;;;;23.87;38.15;101702.38;5090093;28;20072;-76
2022/05/26 08:32:36;;;;;;;5.35;2.40;;;;;;;23.94;37.89;101699.78;5086226;28;20040;-76
2022/05/26 08:35:08;;;;;;;6.53;2.67;;;;;;;23.99;37.86;101702.91;5088007;28;20139;-78
2022/05/26 08:37:34;;;;;;;4.95;2.50;;;;;;;24.00;37.91;101701.88;5092447;28;20071;-79
2022/05/26 08:40:01;;;;;;;5.32;2.17;;;;;;;24.07;37.57;101702.06;5095915;28;20072;-80
2022/05/26 08:42:31;;;;;;;4.47;2.30;;;;;;;24.13;37.18;101713.34;5057699;28;20053;-79
2022/05/26 08:45:11;;;;;;;4.82;2.08;;;;;;;24.16;37.06;101710.22;5074153;28;20202;-80
2022/05/26 08:47:44;;;;;;;3.95;2.17;;;;;;;24.21;36.62;101712.53;5088203;28;20094;-78
2022/05/26 08:50:15;;;;;;;4.07;2.47;;;;;;;24.25;37.15;101708.38;5092300;28;20090;-79
2022/05/26 08:52:55;;;;;;;5.72;2.47;;;;;;;24.30;36.77;101713.41;5081976;28;20067;-78
2022/05/26 08:55:28;;;;;;;5.47;2.53;;;;;;;24.33;37.19;101721.38;5081682;28;20037;-79
2022/05/26 08:58:24;;;;;;;5.13;2.65;;;;;;;24.34;37.31;101703.69;5089855;28;20040;-78
2022/05/26 09:00:53;;;;;;;5.85;2.20;;;;;;;24.40;36.84;101728.00;5075012;28;20055;-79
2022/05/26 09:03:23;;;;;;;4.30;2.35;;;;;;;24.45;36.13;101722.81;5084394;28;20422;-79
2022/05/26 09:06:11;;;;;;;4.57;2.53;;;;;;;24.46;36.05;101730.09;5086927;28;20052;-79
2022/05/26 09:14:29;;;;;;;5.15;2.17;;;;;;;24.56;36.14;101731.66;5096361;28;20043;-79
2022/05/26 09:17:13;;;;;;;5.68;2.25;;;;;;;24.60;35.62;101729.41;5083838;28;20442;-79
2022/05/26 09:19:43;;;;;;;4.60;2.70;;;;;;;24.65;35.95;101738.09;5090994;28;20457;-78
2022/05/26 09:22:42;;;;;;;5.75;2.65;;;;;;;24.72;36.04;101741.03;5063560;28;20462;-79
2022/05/26 09:25:31;;;;;;;4.93;2.30;;;;;;;24.75;35.32;101743.47;5073939;28;20449;-79
2022/05/26 09:27:58;;;;;;;3.05;2.00;;;;;;;24.76;35.61;101746.09;5100962;28;20059;-79
2022/05/26 09:30:28;;;;;;;4.47;2.10;;;;;;;24.84;36.08;101748.00;5098927;28;20104;-80
2022/05/26 09:32:55;;;;;;;3.78;2.10;;;;;;;24.88;35.57;101741.03;5091433;28;20356;-78
2022/05/26 09:35:34;;;;;;;3.83;2.13;;;;;;;24.94;34.86;101744.03;5092197;28;20044;-80
2022/05/26 09:38:05;;;;;;;5.07;2.20;;;;;;;24.97;34.82;101737.25;5082796;28;20462;-78
2022/05/26 09:40:40;;;;;;;4.45;2.30;;;;;;;25.01;35.43;101746.97;5098030;28;20059;-75
2022/05/26 09:43:26;;;;;;;5.45;2.20;;;;;;;25.09;35.08;101752.53;5093147;28;20072;-78
2022/05/26 09:46:01;;;;;;;5.75;2.92;;;;;;;25.11;34.66;101758.78;5070887;28;20109;-80
2022/05/26 09:48:37;;;;;;;4.38;2.10;;;;;;;25.16;34.88;101761.03;5097944;28;20251;-80
2022/05/26 09:51:34;;;;;;;4.22;2.03;;;;;;;25.16;35.13;101764.69;5087201;28;20056;-81
2022/05/26 09:54:21;;;;;;;4.35;1.95;;;;;;;25.20;34.52;101760.47;5067745;28;20068;-84
2022/05/26 09:56:47;;;;;;;4.45;2.10;;;;;;;25.23;34.99;101760.16;5091499;28;20109;-81
2022/05/26 09:59:33;;;;;;;4.40;2.50;;;;;;;25.28;34.13;101765.19;5096939;28;20445;-78
2022/05/26 10:02:22;;;;;;;5.28;2.65;;;;;;;25.30;34.46;101761.16;5085597;28;20040;-83
2022/05/26 10:05:31;;;;;;;3.88;2.10;;;;;;;25.34;34.31;101764.47;5096768;28;20048;-84
2022/05/26 10:08:25;;;;;;;4.38;1.98;;;;;;;25.37;34.60;101769.66;5082571;28;20439;-83
2022/05/26 10:10:59;;;;;;;4.72;2.08;;;;;;;25.44;34.52;101775.41;5068522;28;20044;-84
2022/05/26 10:13:33;;;;;;;3.78;1.85;;;;;;;25.48;34.06;101765.66;5078608;28;20051;-85
2022/05/26 10:16:16;;;;;;;4.20;2.00;;;;;;;25.50;34.43;101764.44;5087417;28;20035;-84
2022/05/26 10:19:19;;;;;;;4.65;1.73;;;;;;;25.48;33.98;101766.53;5071929;28;20055;-84
2022/05/26 10:22:08;;;;;;;4.43;1.95;;;;;;;25.55;33.61;101770.31;5082884;28;20040;-83
2022/05/26 10:24:53;;;;;;;5.53;2.10;;;;;;;25.55;33.74;101775.00;5082462;28;20051;-81
2022/05/26 10:27:49;;;;;;;3.63;1.63;;;;;;;25.56;33.80;101777.63;5071275;28;20067;-81
2022/05/26 10:30:23;;;;;;;4.18;1.83;;;;;;;25.59;33.21;101771.75;5078348;28;20068;-81
2022/05/26 10:33:12;;;;;;;3.47;1.98;;;;;;;25.60;33.30;101773.50;5080305;28;20197;-83
2022/05/26 10:36:07;;;;;;;3.63;1.92;;;;;;;25.63;33.39;101778.69;5081203;28;20048;-84
2022/05/26 10:38:52;;;;;;;3.85;1.73;;;;;;;25.62;33.29;101784.41;5073892;28;20138;-82
2022/05/26 10:41:34;;;;;;;3.85;1.60;;;;;;;25.63;33.15;101775.03;5082301;28;20133;-83
2022/05/26 10:44:24;;;;;;;3.92;1.90;;;;;;;25.64;33.02;101776.75;5065803;28;20445;-83
2022/05/26 10:47:09;;;;;;;3.53;1.80;;;;;;;25.64;32.79;101777.63;5064493;28;20052;-82
2022/05/26 10:50:01;;;;;;;4.05;1.80;;;;;;;25.64;32.76;101773.97;5097771;28;20067;-82
2022/05/26 10:52:42;;;;;;;3.03;1.60;;;;;;;25.63;32.46;101778.69;5087014;28;20170;-82
2022/05/26 10:55:18;;;;;;;3.60;1.70;;;;;;;25.66;32.56;101789.47;5088747;28;20344;-82
2022/05/26 10:58:02;;;;;;;4.68;1.70;;;;;;;25.63;33.08;101773.13;5073061;28;20052;-83
2022/05/26 11:00:31;;;;;;;4.20;1.70;;;;;;;25.67;32.96;101781.97;5089007;28;20052;-81
2022/05/26 11:03:19;;;;;;;3.58;1.65;;;;;;;25.72;32.82;101783.16;5070617;28;20105;-83
2022/05/26 11:05:50;;;;;;;6.07;1.77;;;;;;;25.72;33.00;101791.50;5098425;28;20070;-82
2022/05/26 11:08:40;;;;;;;3.95;1.75;;;;;;;25.76;32.30;101792.91;5095815;28;20044;-83
2022/05/26 11:11:36;;;;;;;3.13;1.73;;;;;;;25.80;32.56;101785.06;5087796;28;20457;-81
2022/05/26 11:17:21;;;;;;;4.53;1.58;;;;;;;25.82;32.38;101773.75;5105119;28;20097;-82
2022/05/26 11:19:58;;;;;;;3.03;1.77;;;;;;;25.89;32.50;101786.75;5090053;28;20044;-82
2022/05/26 11:22:25;;;;;;;6.28;2.20;;;;;;;25.91;32.44;101784.69;5084733;28;20044;-81
2022/05/26 11:24:53;;;;;;;2.95;1.83;;;;;;;25.96;32.01;101786.91;5073161;28;20083;-85
2022/05/26 11:27:26;;;;;;;2.88;1.65;;;;;;;26.02;31.90;101789.84;5082848;28;20470;-83
2022/05/26 11:29:57;;;;;;;;;;;;;;;25.72;32.75;101788.72;5088176;28;20490;-83
2022/05/26 11:38:13;;;;;;;2.97;1.60;;;;;;;26.06;31.24;101787.56;5086860;28;20486;-83
2022/05/26 11:40:55;;;;;;;3.08;1.60;;;;;;;26.05;31.27;101783.91;5096685;28;20051;-84
2022/05/26 11:43:25;;;;;;;3.42;1.85;;;;;;;26.03;31.62;101791.56;5094772;28;20134;-82
2022/05/26 11:45:54;;;;;;;4.53;1.63;;;;;;;26.04;31.38;101784.94;5068382;28;20174;-81
2022/05/26 11:48:32;;;;;;;3.08;1.67;;;;;;;26.06;31.10;101794.00;5057965;28;20036;-82
2022/05/26 11:51:12;;;;;;;4.67;2.03;;;;;;;26.01;31.47;101799.25;5085781;28;20127;-83
2022/05/26 11:53:43;;;;;;;5.25;1.60;;;;;;;26.02;31.34;101800.13;5091354;28;20405;-82
2022/05/26 11:56:25;;;;;;;4.50;1.75;;;;;;;26.02;31.03;101789.84;5089247;28;20044;-82
2022/05/26 11:59:41;;;;;;;4.22;1.60;;;;;;;25.95;31.00;101785.16;5084819;28;20058;-82
2022/05/26 12:02:07;;;;;;;4.30;1.60;;;;;;;25.94;31.39;101780.69;5051703;28;20467;-80
2022/05/26 12:04:43;;;;;;;4.93;1.77;;;;;;;25.99;31.44;101781.84;5085691;28;20450;-81
2022/05/26 12:07:17;;;;;;;5.28;1.77;;;;;;;25.99;31.20;101776.28;5084163;28;20051;-81
2022/05/26 12:09:50;;;;;;;3.13;1.80;;;;;;;26.00;31.32;101768.81;5091875;28;20495;-81
2022/05/26 12:12:17;;;;;;;4.00;1.80;;;;;;;25.98;31.14;101765.34;5066667;28;20041;-81
2022/05/26 12:14:46;;;;;;;4.85;2.00;;;;;;;26.03;30.87;101772.09;5077790;28;20076;-82
2022/05/26 12:17:33;;;;;;;4.03;1.85;;;;;;;26.01;31.00;101770.56;5082589;28;20094;-82
2022/05/26 12:20:24;;;;;;;2.10;1.45;;;;;;;25.99;30.87;101775.41;5054753;28;20329;-82
2022/05/26 12:22:51;;;;;;;2.88;1.40;;;;;;;25.98;31.21;101771.78;5079149;28;20118;-83
2022/05/26 12:25:35;;;;;;;3.33;1.50;;;;;;;26.04;30.92;101771.03;5084350;28;20044;-84
2022/05/26 12:28:14;;;;;;;3.10;1.60;;;;;;;26.05;30.89;101783.03;5071093;28;20040;-84
2022/05/26 12:30:44;;;;;;;3.80;1.40;;;;;;;26.06;30.77;101774.50;5078157;28;20498;-83
2022/05/26 12:33:20;;;;;;;2.55;1.50;;;;;;;26.08;30.61;101771.56;5085625;28;20044;-84
2022/05/26 12:36:09;;;;;;;3.38;1.40;;;;;;;26.07;30.54;101758.69;5093118;28;20138;-83